createdAt,value
2023-04-13T00:01:11.806Z,5.67
2023-04-13T00:06:14.485Z,5.65
2023-04-13T00:11:17.752Z,5.55
2023-04-13T00:16:22.286Z,5.48
2023-04-13T00:21:25.794Z,5.48
2023-04-13T00:26:28.815Z,5.42
2023-04-13T00:31:33.809Z,5.38
2023-04-13T00:36:37.793Z,5.34
2023-04-13T00:41:40.524Z,5.20
2023-04-13T00:46:46.432Z,5.16
2023-04-13T00:51:49.493Z,5.16
2023-04-13T00:56:54.201Z,5.07
2023-04-13T01:01:58.983Z,5.06
2023-04-13T01:07:08.293Z,5.11
2023-04-13T01:12:14.566Z,5.16
2023-04-13T01:17:22.641Z,5.19
2023-04-13T01:22:29.750Z,5.25
2023-04-13T01:27:43.873Z,5.29
2023-04-13T01:32:47.044Z,5.26
2023-04-13T01:37:50.880Z,5.27
2023-04-13T01:42:56.419Z,5.29
2023-04-13T01:48:07.656Z,5.30
2023-04-13T01:53:38.176Z,5.46
2023-04-13T01:58:44.542Z,5.54
2023-04-13T02:03:50.937Z,5.52
2023-04-13T02:08:54.779Z,5.67
2023-04-13T02:13:59.326Z,5.82
2023-04-13T02:19:02.386Z,5.84
2023-04-13T02:24:05.831Z,5.84
2023-04-13T02:29:10.057Z,5.82
2023-04-13T02:34:13.164Z,5.86
2023-04-13T02:39:18.222Z,5.95
2023-04-13T02:44:22.887Z,5.96
2023-04-13T02:49:31.183Z,6.00
2023-04-13T02:54:54.729Z,6.03
2023-04-13T03:00:08.064Z,6.07
2023-04-13T03:05:19.799Z,6.05
2023-04-13T03:10:23.178Z,6.13
2023-04-13T03:15:28.192Z,6.13
2023-04-13T03:20:31.477Z,6.20
2023-04-13T03:25:37.116Z,6.16
2023-04-13T03:30:41.976Z,6.16
2023-04-13T03:35:45.463Z,6.14
2023-04-13T03:40:59.700Z,6.19
2023-04-13T03:46:05.817Z,6.22
2023-04-13T03:51:09.084Z,6.24
2023-04-13T03:56:24.350Z,6.25
2023-04-13T04:01:29.277Z,6.37
2023-04-13T04:06:32.275Z,6.37
2023-04-13T04:11:53.633Z,6.37
2023-04-13T04:17:07.650Z,6.39
2023-04-13T04:22:10.801Z,6.38
2023-04-13T04:27:17.166Z,6.44
2023-04-13T04:32:24.127Z,6.51
2023-04-13T04:37:28.496Z,6.47
2023-04-13T04:42:44.459Z,6.49
2023-04-13T04:48:04.211Z,6.49
2023-04-13T04:53:08.046Z,6.50
2023-04-13T04:58:10.934Z,6.49
2023-04-13T05:03:18.736Z,6.50
2023-04-13T05:08:28.509Z,6.56
2023-04-13T05:13:31.406Z,6.53
2023-04-13T05:18:47.112Z,6.55
2023-04-13T05:24:08.903Z,6.57
2023-04-13T05:29:12.620Z,6.58
2023-04-13T05:34:19.904Z,6.59
2023-04-13T05:39:37.092Z,6.64
2023-04-13T05:44:40.200Z,6.66
2023-04-13T05:49:44.496Z,6.67
2023-04-13T05:54:47.579Z,6.63
2023-04-13T05:59:51.852Z,6.60
2023-04-13T06:05:01.942Z,6.53
2023-04-13T06:10:05.453Z,6.43
2023-04-13T06:15:09.079Z,6.42
2023-04-13T06:20:14.996Z,6.49
2023-04-13T06:25:17.957Z,6.53
2023-04-13T06:30:22.144Z,6.61
2023-04-13T06:35:31.536Z,6.82
2023-04-13T06:40:34.763Z,6.82
2023-04-13T06:45:41.589Z,7.05
2023-04-13T06:50:52.190Z,7.31
2023-04-13T06:55:55.793Z,7.49
2023-04-13T07:00:58.944Z,7.29
2023-04-13T07:06:08.282Z,7.46
2023-04-13T07:11:13.351Z,7.39
2023-04-13T07:16:17.698Z,8.40
2023-04-13T07:21:23.635Z,8.40
2023-04-13T07:26:44.919Z,8.50
2023-04-13T07:31:48.630Z,8.76
2023-04-13T07:36:53.201Z,8.51
2023-04-13T07:41:58.020Z,8.51
2023-04-13T07:47:23.687Z,8.35
2023-04-13T07:52:31.502Z,8.25
2023-04-13T07:57:34.391Z,8.26
2023-04-13T08:02:39.732Z,8.38
2023-04-13T08:07:46.804Z,8.48
2023-04-13T08:12:51.432Z,8.89
2023-04-13T08:17:56.532Z,9.35
2023-04-13T08:23:01.256Z,9.30
2023-04-13T08:28:04.301Z,9.57
2023-04-13T08:33:07.520Z,9.46
2023-04-13T08:38:12.529Z,9.22
2023-04-13T08:43:21.023Z,9.65
2023-04-13T08:48:24.639Z,10.05
2023-04-13T08:53:31.038Z,9.90
2023-04-13T08:58:36.960Z,10.17
2023-04-13T09:03:50.108Z,9.66
2023-04-13T09:08:55.315Z,10.18
2023-04-13T09:13:58.906Z,10.52
2023-04-13T09:19:02.962Z,10.17
2023-04-13T09:24:07.667Z,9.89
2023-04-13T09:29:14.024Z,9.68
2023-04-13T09:34:28.358Z,9.47
2023-04-13T09:39:32.460Z,9.73
2023-04-13T09:44:35.998Z,9.77
2023-04-13T09:49:39.189Z,10.23
2023-04-13T09:54:43.738Z,10.06
2023-04-13T09:59:46.537Z,9.76
2023-04-13T10:04:49.393Z,9.65
2023-04-13T10:09:55.723Z,9.83
2023-04-13T10:15:08.007Z,9.64
2023-04-13T10:20:13.612Z,9.60
2023-04-13T10:25:32.183Z,8.89
2023-04-13T10:30:36.247Z,9.12
2023-04-13T10:35:42.919Z,9.41
2023-04-13T10:40:48.678Z,9.89
2023-04-13T10:45:51.603Z,10.30
2023-04-13T10:50:59.195Z,10.31
2023-04-13T10:56:05.049Z,10.27
2023-04-13T11:01:08.293Z,9.39
2023-04-13T11:06:11.046Z,10.27
2023-04-13T11:11:25.480Z,10.70
2023-04-13T11:16:28.247Z,10.99
2023-04-13T11:21:31.734Z,11.09
2023-04-13T11:26:38.316Z,10.98
2023-04-13T11:31:42.571Z,11.22
2023-04-13T11:36:49.647Z,10.67
2023-04-13T11:41:53.823Z,11.05
2023-04-13T11:46:56.841Z,10.94
2023-04-13T11:51:59.889Z,10.84
2023-04-13T11:57:04.126Z,11.00
2023-04-13T12:02:15.504Z,10.77
2023-04-13T12:07:24.881Z,10.84
2023-04-13T12:12:51.354Z,10.74
2023-04-13T12:17:59.933Z,10.75
2023-04-13T12:23:15.581Z,10.88
2023-04-13T12:28:33.658Z,11.07
2023-04-13T12:33:37.634Z,11.19
2023-04-13T12:38:40.670Z,11.66
2023-04-13T12:43:44.752Z,11.75
2023-04-13T12:48:47.667Z,11.41
2023-04-13T12:53:50.453Z,11.48
2023-04-13T12:58:54.667Z,11.26
2023-04-13T13:03:57.579Z,11.36
2023-04-13T13:09:01.100Z,11.50
2023-04-13T13:14:05.696Z,11.48
2023-04-13T13:19:08.507Z,11.92
2023-04-13T13:24:11.278Z,11.69
2023-04-13T13:29:17.484Z,11.48
2023-04-13T13:34:20.482Z,11.59
2023-04-13T13:39:23.924Z,11.65
2023-04-13T13:44:28.155Z,11.96
2023-04-13T13:49:31.095Z,11.41
2023-04-13T13:54:58.380Z,12.38
2023-04-13T14:00:05.102Z,12.90
2023-04-13T14:05:14.673Z,11.95
2023-04-13T14:10:17.439Z,12.00
2023-04-13T14:15:21.685Z,11.97
2023-04-13T14:20:24.401Z,12.16
2023-04-13T14:25:27.228Z,12.11
2023-04-13T14:30:31.472Z,12.05
2023-04-13T14:35:34.610Z,11.76
2023-04-13T14:40:37.454Z,12.40
2023-04-13T14:45:41.627Z,12.76
2023-04-13T14:50:44.396Z,12.47
2023-04-13T14:55:47.418Z,13.19
2023-04-13T15:00:51.575Z,13.11
2023-04-13T15:06:02.890Z,12.70
2023-04-13T15:11:07.713Z,12.83
2023-04-13T15:16:12.179Z,12.64
2023-04-13T15:21:15.049Z,12.51
2023-04-13T15:26:18.619Z,12.28
2023-04-13T15:31:24.222Z,12.48
2023-04-13T15:36:27.712Z,12.05
2023-04-13T15:41:30.720Z,12.65
2023-04-13T15:46:37.287Z,12.92
2023-04-13T15:51:40.379Z,13.04
2023-04-13T15:56:45.381Z,13.28
2023-04-13T16:01:51.260Z,12.86
2023-04-13T16:07:09.066Z,12.39
2023-04-13T16:12:15.370Z,12.54
2023-04-13T16:17:19.668Z,12.74
2023-04-13T16:22:22.536Z,13.34
2023-04-13T16:27:25.976Z,13.76
2023-04-13T16:32:30.269Z,13.67
2023-04-13T16:37:33.046Z,13.46
2023-04-13T16:42:36.086Z,13.28
2023-04-13T16:47:40.259Z,13.05
2023-04-13T16:52:43.150Z,12.91
2023-04-13T16:57:46.173Z,12.66
2023-04-13T17:02:50.712Z,12.56
2023-04-13T17:07:53.762Z,12.44
2023-04-13T17:12:57.370Z,12.45
2023-04-13T17:18:01.614Z,12.31
2023-04-13T17:23:04.427Z,12.27
2023-04-13T17:28:07.264Z,12.32
2023-04-13T17:33:11.449Z,12.26
2023-04-13T17:38:14.315Z,12.33
2023-04-13T17:43:17.138Z,12.28
2023-04-13T17:48:21.376Z,12.26
2023-04-13T17:53:24.153Z,12.12
2023-04-13T17:58:26.940Z,12.01
2023-04-13T18:03:31.969Z,11.96
2023-04-13T18:08:35.030Z,11.79
2023-04-13T18:13:37.882Z,11.67
2023-04-13T18:18:42.067Z,11.45
2023-04-13T18:23:44.826Z,11.32
2023-04-13T18:28:47.595Z,11.18
2023-04-13T18:33:51.753Z,11.08
2023-04-13T18:38:54.963Z,10.70
2023-04-13T18:43:58.257Z,10.69
2023-04-13T18:49:02.675Z,10.67
2023-04-13T18:54:05.806Z,10.49
2023-04-13T18:59:08.649Z,10.23
2023-04-13T19:04:12.868Z,10.17
2023-04-13T19:09:16.041Z,10.10
2023-04-13T19:14:18.858Z,9.84
2023-04-13T19:19:26.195Z,9.63
2023-04-13T19:24:29.002Z,9.64
2023-04-13T19:29:33.403Z,9.47
2023-04-13T19:34:37.551Z,9.45
2023-04-13T19:39:40.602Z,9.39
2023-04-13T19:44:43.504Z,9.13
2023-04-13T19:49:48.022Z,9.03
2023-04-13T19:54:50.910Z,8.99
2023-04-13T19:59:53.716Z,8.95
2023-04-13T20:04:58.168Z,8.92
2023-04-13T20:10:00.911Z,8.90
2023-04-13T20:15:04.366Z,8.76
2023-04-13T20:20:11.166Z,8.64
2023-04-13T20:25:14.216Z,8.70
2023-04-13T20:30:17.191Z,8.73
2023-04-13T20:35:21.591Z,8.64
2023-04-13T20:40:27.079Z,8.60
2023-04-13T20:45:30.338Z,8.52
2023-04-13T20:50:34.592Z,8.34
2023-04-13T20:55:37.600Z,8.29
2023-04-13T21:00:41.073Z,8.09
2023-04-13T21:05:45.385Z,8.14
2023-04-13T21:10:48.763Z,7.71
2023-04-13T21:15:51.602Z,7.61
2023-04-13T21:20:55.742Z,7.54
2023-04-13T21:25:58.453Z,7.57
2023-04-13T21:31:01.250Z,7.39
2023-04-13T21:41:16.606Z,7.29
2023-04-13T21:46:19.462Z,7.12
2023-04-13T21:51:23.710Z,7.09
2023-04-13T21:56:27.142Z,6.94
2023-04-13T22:01:30.064Z,6.94
2023-04-13T22:06:34.351Z,6.88
2023-04-13T22:11:37.099Z,6.92
2023-04-13T22:16:39.835Z,6.84
2023-04-13T22:21:44.258Z,6.87
2023-04-13T22:26:47.397Z,6.62
2023-04-13T22:31:50.273Z,6.58
2023-04-13T22:36:54.669Z,6.53
2023-04-13T22:41:58.125Z,6.37
2023-04-13T22:47:01.065Z,6.35
2023-04-13T22:52:05.851Z,6.23
2023-04-13T22:57:08.607Z,6.15
2023-04-13T23:02:11.534Z,6.14
2023-04-13T23:07:15.768Z,6.01
2023-04-13T23:12:18.542Z,5.98
2023-04-13T23:17:21.364Z,5.81
2023-04-13T23:22:25.817Z,5.88
2023-04-13T23:27:28.600Z,5.23
2023-04-13T23:32:31.418Z,5.32
2023-04-13T23:37:35.574Z,5.43
2023-04-13T23:42:38.360Z,5.27
2023-04-13T23:47:41.182Z,5.35
2023-04-13T23:52:45.576Z,5.21
2023-04-13T23:57:48.349Z,5.30
